createdAt,value
2022-12-04T00:00:27.358Z,9.75
2022-12-04T00:02:54.276Z,9.00
2022-12-04T00:05:21.267Z,11.02
2022-12-04T00:07:48.524Z,13.48
2022-12-04T00:10:15.475Z,13.15
2022-12-04T00:12:42.283Z,11.07
2022-12-04T00:15:25.186Z,8.13
2022-12-04T00:17:53.128Z,10.52
2022-12-04T00:20:20.149Z,11.10
2022-12-04T00:22:47.121Z,13.20
2022-12-04T00:25:13.928Z,10.52
2022-12-04T00:27:40.814Z,12.85
2022-12-04T00:30:08.257Z,11.45
2022-12-04T00:32:35.156Z,9.88
2022-12-04T00:35:01.954Z,9.27
2022-12-04T00:37:28.760Z,8.25
2022-12-04T00:39:55.749Z,8.50
2022-12-04T00:42:22.753Z,10.05
2022-12-04T00:44:49.666Z,7.57
2022-12-04T00:47:16.457Z,9.30
2022-12-04T00:49:43.206Z,8.40
2022-12-04T00:52:09.983Z,9.25
2022-12-04T00:54:36.785Z,9.40
2022-12-04T00:57:03.600Z,11.73
2022-12-04T00:59:30.385Z,12.25
2022-12-04T01:01:57.547Z,11.23
2022-12-04T01:04:24.366Z,10.88
2022-12-04T01:06:51.192Z,15.63
2022-12-04T01:09:18.793Z,11.52
2022-12-04T01:11:45.787Z,11.82
2022-12-04T01:14:12.591Z,11.57
2022-12-04T01:16:40.790Z,9.68
2022-12-04T01:19:11.625Z,14.65
2022-12-04T01:21:39.076Z,10.45
2022-12-04T01:24:06.582Z,13.05
2022-12-04T01:26:33.539Z,11.55
2022-12-04T01:29:00.521Z,10.68
2022-12-04T01:31:27.412Z,11.02
2022-12-04T01:33:54.499Z,13.18
2022-12-04T01:36:24.549Z,12.32
2022-12-04T01:38:51.849Z,10.00
2022-12-04T01:41:22.218Z,10.98
2022-12-04T01:44:07.951Z,10.95
2022-12-04T01:46:34.760Z,10.05
2022-12-04T01:49:03.160Z,7.05
2022-12-04T01:51:36.871Z,8.38
2022-12-04T01:54:09.180Z,10.60
2022-12-04T01:56:44.168Z,9.73
2022-12-04T01:59:12.739Z,10.25
2022-12-04T02:02:04.484Z,7.80
2022-12-04T02:04:33.409Z,6.72
2022-12-04T02:07:00.298Z,7.05
2022-12-04T02:09:28.043Z,7.47
2022-12-04T02:12:33.003Z,8.32
2022-12-04T02:15:24.656Z,6.15
2022-12-04T02:18:08.873Z,8.55
2022-12-04T02:20:59.263Z,10.23
2022-12-04T02:23:49.398Z,9.60
2022-12-04T02:26:55.241Z,11.10
2022-12-04T02:29:36.466Z,10.15
2022-12-04T02:32:20.113Z,7.75
2022-12-04T02:34:52.955Z,7.68
2022-12-04T02:37:31.288Z,5.65
2022-12-04T02:40:15.908Z,6.45
2022-12-04T02:42:48.069Z,4.30
2022-12-04T02:45:26.353Z,4.93
2022-12-04T02:47:55.124Z,4.53
2022-12-04T02:50:24.325Z,4.50
2022-12-04T02:53:24.501Z,4.45
2022-12-04T02:55:56.048Z,6.07
2022-12-04T02:58:37.664Z,5.13
2022-12-04T03:01:19.583Z,5.55
2022-12-04T03:03:59.538Z,8.55
2022-12-04T03:06:29.772Z,7.70
2022-12-04T03:09:03.204Z,7.57
2022-12-04T03:11:34.828Z,9.25
2022-12-04T03:14:10.647Z,8.30
2022-12-04T03:16:41.516Z,7.22
2022-12-04T03:19:20.056Z,6.93
2022-12-04T03:21:52.470Z,6.80
2022-12-04T03:24:29.509Z,7.78
2022-12-04T03:27:00.752Z,8.52
2022-12-04T03:29:53.290Z,10.65
2022-12-04T03:32:28.815Z,10.38
2022-12-04T03:35:11.456Z,11.93
2022-12-04T03:37:47.008Z,10.35
2022-12-04T03:40:37.365Z,9.57
2022-12-04T03:43:12.255Z,9.40
2022-12-04T03:45:56.198Z,10.30
2022-12-04T03:48:31.187Z,7.00
2022-12-04T03:51:23.934Z,7.30
2022-12-04T03:54:19.683Z,6.47
2022-12-04T03:56:55.158Z,5.53
2022-12-04T03:59:39.077Z,5.72
2022-12-04T04:02:10.330Z,4.20
2022-12-04T04:04:39.492Z,4.20
2022-12-04T04:07:20.070Z,5.82
2022-12-04T04:09:50.744Z,5.00
2022-12-04T04:12:23.173Z,5.32
2022-12-04T04:15:22.114Z,8.20
2022-12-04T04:18:09.707Z,7.88
2022-12-04T04:21:17.182Z,6.18
2022-12-04T04:24:15.109Z,6.88
2022-12-04T04:26:47.400Z,7.10
2022-12-04T04:29:14.385Z,9.48
2022-12-04T04:31:53.038Z,6.97
2022-12-04T04:34:30.093Z,9.40
2022-12-04T04:37:10.304Z,9.38
2022-12-04T04:39:45.559Z,8.15
2022-12-04T04:42:50.784Z,6.72
2022-12-04T04:45:30.399Z,6.38
2022-12-04T04:48:04.233Z,6.80
2022-12-04T04:50:33.100Z,7.07
2022-12-04T04:53:09.580Z,7.75
2022-12-04T04:55:37.177Z,9.20
2022-12-04T04:58:12.646Z,10.20
2022-12-04T05:00:40.307Z,7.68
2022-12-04T05:03:07.283Z,6.65
2022-12-04T05:05:34.111Z,7.25
2022-12-04T05:08:01.066Z,7.00
2022-12-04T05:10:27.965Z,6.78
2022-12-04T05:12:54.839Z,7.22
2022-12-04T05:15:21.629Z,6.85
2022-12-04T05:17:48.465Z,7.30
2022-12-04T05:20:15.339Z,6.72
2022-12-04T05:22:42.104Z,6.93
2022-12-04T05:25:10.266Z,8.00
2022-12-04T05:27:37.371Z,7.85
2022-12-04T05:30:05.186Z,7.28
2022-12-04T05:32:32.090Z,5.10
2022-12-04T05:34:59.204Z,5.43
2022-12-04T05:37:26.334Z,4.78
2022-12-04T05:39:54.065Z,4.88
2022-12-04T05:42:21.834Z,4.53
2022-12-04T05:44:50.143Z,4.82
2022-12-04T05:47:17.345Z,6.78
2022-12-04T05:49:44.221Z,6.38
2022-12-04T05:52:11.200Z,6.90
2022-12-04T05:54:38.338Z,8.68
2022-12-04T05:57:05.128Z,7.82
2022-12-04T05:59:32.404Z,10.00
2022-12-04T06:01:59.250Z,6.68
2022-12-04T06:04:26.122Z,9.05
2022-12-04T06:06:54.105Z,8.80
2022-12-04T06:09:21.416Z,7.45
2022-12-04T06:11:48.313Z,8.02
2022-12-04T06:14:15.987Z,9.25
2022-12-04T06:16:46.274Z,9.98
2022-12-04T06:19:17.867Z,8.57
2022-12-04T06:21:49.924Z,8.02
2022-12-04T06:24:21.862Z,8.93
2022-12-04T06:27:18.917Z,6.28
2022-12-04T06:29:36.599Z,7.53
2022-12-04T06:32:03.790Z,6.13
2022-12-04T06:34:30.845Z,6.53
2022-12-04T06:36:57.687Z,7.22
2022-12-04T06:39:24.479Z,8.95
2022-12-04T06:41:51.377Z,7.80
2022-12-04T06:44:18.178Z,8.95
2022-12-04T06:46:47.218Z,9.43
2022-12-04T06:49:14.483Z,10.18
2022-12-04T06:51:41.283Z,10.75
2022-12-04T06:54:09.400Z,9.55
2022-12-04T06:56:36.375Z,11.30
2022-12-04T06:59:04.831Z,14.98
2022-12-04T07:01:33.621Z,19.00
2022-12-04T07:04:03.863Z,18.23
2022-12-04T07:06:33.603Z,17.83
2022-12-04T07:09:10.606Z,13.30
2022-12-04T07:11:38.467Z,12.48
2022-12-04T07:14:05.370Z,13.25
2022-12-04T07:16:38.405Z,12.02
2022-12-04T07:19:07.835Z,11.45
2022-12-04T07:21:34.875Z,9.73
2022-12-04T07:24:02.148Z,11.40
2022-12-04T07:26:30.649Z,13.02
2022-12-04T07:28:58.777Z,10.93
2022-12-04T07:31:28.120Z,12.38
2022-12-04T07:33:55.972Z,9.98
2022-12-04T07:36:25.284Z,10.30
2022-12-04T07:38:52.535Z,11.15
2022-12-04T07:41:19.661Z,12.85
2022-12-04T07:43:46.970Z,10.48
2022-12-04T07:46:24.300Z,9.93
2022-12-04T07:48:51.226Z,9.95
2022-12-04T07:51:19.201Z,8.80
2022-12-04T07:53:46.383Z,9.55
2022-12-04T07:56:13.828Z,10.10
2022-12-04T07:58:41.942Z,12.23
2022-12-04T08:01:15.539Z,10.27
2022-12-04T08:03:47.965Z,9.60
2022-12-04T08:06:20.320Z,9.02
2022-12-04T08:08:47.669Z,6.55
2022-12-04T08:11:17.439Z,9.00
2022-12-04T08:13:45.461Z,8.35
2022-12-04T08:16:13.925Z,10.25
2022-12-04T08:18:41.768Z,8.45
2022-12-04T08:21:09.972Z,9.60
2022-12-04T08:23:38.067Z,9.93
2022-12-04T08:26:06.251Z,10.18
2022-12-04T08:28:34.037Z,9.65
2022-12-04T08:31:11.621Z,11.85
2022-12-04T08:33:38.490Z,10.45
2022-12-04T08:36:10.266Z,10.90
2022-12-04T08:38:37.935Z,9.85
2022-12-04T08:41:07.427Z,11.70
2022-12-04T08:43:34.762Z,10.40
2022-12-04T08:46:05.102Z,12.75
2022-12-04T08:48:32.529Z,10.68
2022-12-04T08:51:00.293Z,9.73
2022-12-04T08:53:27.263Z,9.13
2022-12-04T08:55:54.053Z,12.20
2022-12-04T08:58:21.231Z,12.75
2022-12-04T09:00:48.282Z,13.73
2022-12-04T09:03:17.296Z,11.05
2022-12-04T09:05:46.075Z,13.00
2022-12-04T09:08:14.481Z,15.50
2022-12-04T09:10:42.394Z,11.43
2022-12-04T09:13:09.578Z,11.32
2022-12-04T09:15:39.521Z,10.38
2022-12-04T09:18:07.745Z,13.52
2022-12-04T09:20:35.115Z,11.73
2022-12-04T09:23:04.487Z,11.93
2022-12-04T09:25:35.193Z,11.10
2022-12-04T09:28:02.031Z,9.85
2022-12-04T09:30:28.923Z,9.65
2022-12-04T09:32:56.226Z,10.60
2022-12-04T09:35:23.060Z,8.23
2022-12-04T09:37:49.896Z,10.15
2022-12-04T09:40:36.915Z,10.52
2022-12-04T09:43:42.349Z,11.43
2022-12-04T09:46:15.985Z,9.90
2022-12-04T09:48:44.836Z,10.40
2022-12-04T09:51:18.703Z,7.65
2022-12-04T09:53:51.208Z,9.90
2022-12-04T09:56:20.829Z,10.20
2022-12-04T09:59:05.633Z,9.00
2022-12-04T10:01:47.317Z,9.30
2022-12-04T10:04:14.940Z,8.48
2022-12-04T10:06:50.103Z,6.68
2022-12-04T10:09:35.073Z,7.50
2022-12-04T10:12:20.618Z,6.55
2022-12-04T10:14:59.699Z,7.45
2022-12-04T10:17:55.476Z,8.85
2022-12-04T10:20:43.164Z,7.95
2022-12-04T10:23:30.640Z,8.10
2022-12-04T10:25:58.693Z,9.48
2022-12-04T10:28:41.041Z,10.75
2022-12-04T10:31:13.734Z,9.60
2022-12-04T10:33:55.355Z,7.13
2022-12-04T10:36:25.539Z,7.13
2022-12-04T10:39:06.521Z,8.45
2022-12-04T10:41:45.363Z,7.78
2022-12-04T10:44:16.811Z,6.90
2022-12-04T10:46:46.224Z,8.35
2022-12-04T10:49:21.215Z,9.57
2022-12-04T10:51:48.588Z,8.05
2022-12-04T10:54:37.494Z,6.15
2022-12-04T10:57:06.900Z,8.93
2022-12-04T10:59:34.476Z,7.75
2022-12-04T11:02:26.040Z,8.77
2022-12-04T11:04:55.719Z,8.82
2022-12-04T11:07:26.231Z,7.55
2022-12-04T11:10:45.415Z,7.22
2022-12-04T11:13:12.337Z,7.47
2022-12-04T11:15:51.745Z,6.60
2022-12-04T11:18:23.166Z,8.88
2022-12-04T11:20:56.098Z,9.48
2022-12-04T11:23:23.881Z,7.63
2022-12-04T11:26:02.045Z,9.32
2022-12-04T11:28:41.741Z,8.18
2022-12-04T11:31:15.991Z,7.22
2022-12-04T11:33:54.568Z,8.23
2022-12-04T11:36:43.217Z,9.07
2022-12-04T11:39:17.111Z,7.22
2022-12-04T11:41:44.290Z,8.20
2022-12-04T11:44:37.566Z,8.02
2022-12-04T11:47:05.983Z,10.00
2022-12-04T11:49:33.327Z,12.75
2022-12-04T11:52:29.199Z,13.55
2022-12-04T11:55:15.045Z,10.82
2022-12-04T11:58:03.380Z,12.43
2022-12-04T12:00:31.555Z,12.27
2022-12-04T12:03:16.352Z,8.55
2022-12-04T12:06:00.758Z,10.60
2022-12-04T12:08:46.714Z,8.88
2022-12-04T12:11:28.580Z,9.68
2022-12-04T12:14:19.874Z,14.07
2022-12-04T12:17:25.895Z,9.77
2022-12-04T12:20:04.537Z,9.13
2022-12-04T12:22:45.382Z,8.45
2022-12-04T12:25:59.762Z,6.32
2022-12-04T12:28:52.187Z,6.43
2022-12-04T12:31:44.092Z,5.28
2022-12-04T12:34:21.158Z,4.68
2022-12-04T12:36:53.327Z,7.65
2022-12-04T12:39:27.757Z,8.98
2022-12-04T12:41:59.051Z,7.00
2022-12-04T12:44:35.793Z,6.32
2022-12-04T12:47:10.001Z,6.20
2022-12-04T12:49:40.305Z,5.72
2022-12-04T12:52:25.976Z,6.32
2022-12-04T12:54:57.680Z,8.10
2022-12-04T12:57:37.575Z,11.43
2022-12-04T13:00:14.214Z,12.13
2022-12-04T13:03:03.420Z,9.45
2022-12-04T13:05:53.116Z,9.07
2022-12-04T13:08:49.266Z,10.70
2022-12-04T13:11:22.542Z,6.80
2022-12-04T13:13:52.992Z,7.45
2022-12-04T13:16:27.810Z,8.57
2022-12-04T13:18:54.542Z,8.05
2022-12-04T13:21:58.150Z,9.32
2022-12-04T13:24:30.764Z,7.53
2022-12-04T13:27:19.520Z,7.38
2022-12-04T13:30:03.440Z,7.88
2022-12-04T13:32:45.344Z,10.02
2022-12-04T13:35:30.908Z,10.63
2022-12-04T13:38:27.458Z,10.80
2022-12-04T13:41:04.457Z,10.73
2022-12-04T13:43:36.538Z,11.93
2022-12-04T13:46:07.461Z,12.32
2022-12-04T13:48:42.712Z,15.35
2022-12-04T13:51:21.426Z,16.85
2022-12-04T13:53:49.073Z,15.40
2022-12-04T13:56:28.744Z,13.13
2022-12-04T13:59:19.726Z,14.45
2022-12-04T14:01:53.095Z,11.15
2022-12-04T14:04:25.902Z,10.73
2022-12-04T14:06:54.805Z,8.40
2022-12-04T14:09:27.428Z,9.60
2022-12-04T14:12:02.366Z,7.10
2022-12-04T14:14:51.144Z,10.20
2022-12-04T14:17:25.656Z,8.05
2022-12-04T14:19:55.317Z,9.43
2022-12-04T14:22:34.547Z,9.27
2022-12-04T14:25:13.991Z,9.57
2022-12-04T14:27:52.496Z,11.45
2022-12-04T14:30:25.469Z,14.77
2022-12-04T14:33:01.104Z,16.58
2022-12-04T14:35:29.277Z,10.98
2022-12-04T14:38:07.530Z,11.43
2022-12-04T14:40:44.697Z,10.60
2022-12-04T14:43:21.942Z,10.27
2022-12-04T14:46:12.834Z,10.25
2022-12-04T14:49:15.691Z,9.85
2022-12-04T14:51:51.336Z,9.00
2022-12-04T14:54:41.421Z,11.38
2022-12-04T14:57:23.533Z,9.15
2022-12-04T14:59:53.173Z,6.30
2022-12-04T15:02:41.742Z,8.05
2022-12-04T15:05:22.051Z,6.82
2022-12-04T15:07:51.275Z,8.20
2022-12-04T15:10:46.236Z,6.75
2022-12-04T15:13:24.641Z,5.10
2022-12-04T15:15:51.680Z,6.60
2022-12-04T15:18:18.811Z,6.57
2022-12-04T15:20:48.806Z,8.73
2022-12-04T15:23:22.993Z,7.78
2022-12-04T15:25:55.347Z,15.82
2022-12-04T15:28:27.379Z,10.95
2022-12-04T15:30:55.739Z,9.98
2022-12-04T15:33:27.223Z,9.70
2022-12-04T15:36:08.283Z,6.43
2022-12-04T15:38:36.105Z,7.72
2022-12-04T15:41:03.136Z,7.38
2022-12-04T15:43:44.395Z,6.90
2022-12-04T15:46:36.039Z,5.68
2022-12-04T15:49:20.610Z,4.95
2022-12-04T15:51:48.292Z,5.53
2022-12-04T15:54:24.586Z,7.38
2022-12-04T15:57:03.776Z,4.97
2022-12-04T15:59:32.927Z,5.63
2022-12-04T16:02:07.104Z,5.55
2022-12-04T16:04:36.591Z,3.88
2022-12-04T16:07:19.122Z,5.20
2022-12-04T16:10:04.369Z,5.30
2022-12-04T16:12:33.086Z,6.55
2022-12-04T16:15:00.330Z,6.45
2022-12-04T16:17:31.633Z,5.35
2022-12-04T16:19:59.794Z,5.53
2022-12-04T16:22:30.992Z,5.28
2022-12-04T16:24:58.373Z,5.57
2022-12-04T16:27:26.483Z,3.92
2022-12-04T16:29:54.155Z,5.70
2022-12-04T16:32:31.038Z,4.65
2022-12-04T16:34:58.811Z,5.45
2022-12-04T16:37:27.844Z,5.22
2022-12-04T16:39:54.810Z,5.05
2022-12-04T16:42:24.581Z,4.63
2022-12-04T16:44:51.799Z,4.85
2022-12-04T16:47:19.351Z,5.82
2022-12-04T16:49:49.461Z,5.25
2022-12-04T16:52:17.065Z,6.10
2022-12-04T16:54:44.119Z,6.43
2022-12-04T16:57:10.950Z,6.25
2022-12-04T16:59:38.400Z,6.45
2022-12-04T17:02:15.867Z,5.15
2022-12-04T17:04:43.184Z,7.20
2022-12-04T17:07:10.006Z,6.60
2022-12-04T17:09:36.844Z,8.13
2022-12-04T17:12:03.717Z,7.90
2022-12-04T17:14:30.508Z,5.90
2022-12-04T17:16:58.878Z,6.38
2022-12-04T17:19:25.975Z,5.80
2022-12-04T17:21:53.963Z,6.10
2022-12-04T17:24:20.929Z,3.83
2022-12-04T17:26:47.852Z,5.75
2022-12-04T17:29:14.672Z,5.88
2022-12-04T17:31:41.780Z,4.50
2022-12-04T17:34:08.647Z,4.65
2022-12-04T17:36:35.442Z,5.32
2022-12-04T17:39:02.392Z,5.32
2022-12-04T17:41:29.592Z,6.38
2022-12-04T17:43:56.383Z,7.25
2022-12-04T17:46:24.568Z,7.82
2022-12-04T17:48:52.069Z,6.20
2022-12-04T17:51:21.750Z,6.70
2022-12-04T17:53:49.417Z,6.03
2022-12-04T17:56:19.126Z,7.88
2022-12-04T17:58:47.131Z,6.60
2022-12-04T18:01:20.187Z,5.85
2022-12-04T18:03:55.111Z,7.63
2022-12-04T18:06:28.061Z,7.03
2022-12-04T18:08:55.670Z,7.47
2022-12-04T18:11:25.720Z,9.15
2022-12-04T18:14:04.798Z,8.93
2022-12-04T18:16:36.293Z,9.98
2022-12-04T18:19:03.515Z,11.52
2022-12-04T18:21:31.643Z,9.75
2022-12-04T18:24:00.350Z,10.00
2022-12-04T18:26:28.648Z,10.18
2022-12-04T18:28:55.736Z,7.18
2022-12-04T18:31:22.652Z,7.53
2022-12-04T18:33:50.093Z,7.13
2022-12-04T18:36:21.066Z,6.80
2022-12-04T18:38:52.697Z,8.32
2022-12-04T18:41:19.491Z,7.78
2022-12-04T18:43:47.072Z,10.35
2022-12-04T18:46:16.120Z,5.85
2022-12-04T18:48:44.689Z,6.38
2022-12-04T18:51:23.148Z,4.63
2022-12-04T18:53:51.685Z,4.95
2022-12-04T18:56:19.012Z,4.93
2022-12-04T18:58:48.496Z,3.67
2022-12-04T19:01:19.974Z,2.83
2022-12-04T19:03:47.815Z,3.00
2022-12-04T19:06:15.079Z,3.85
2022-12-04T19:08:43.404Z,3.42
2022-12-04T19:11:16.007Z,3.53
2022-12-04T19:13:43.306Z,4.30
2022-12-04T19:16:15.546Z,2.78
2022-12-04T19:18:45.221Z,2.08
2022-12-04T19:21:14.022Z,2.40
2022-12-04T19:23:41.525Z,1.83
2022-12-04T19:26:08.671Z,3.00
2022-12-04T19:28:36.262Z,2.22
2022-12-04T19:31:03.241Z,2.22
2022-12-04T19:33:30.404Z,2.10
2022-12-04T19:36:05.236Z,4.93
2022-12-04T19:38:32.958Z,6.95
2022-12-04T19:41:10.416Z,5.15
2022-12-04T19:43:39.018Z,4.40
2022-12-04T19:46:07.882Z,5.03
2022-12-04T19:48:35.632Z,5.00
2022-12-04T19:51:14.566Z,5.70
2022-12-04T19:53:42.517Z,5.47
2022-12-04T19:56:13.123Z,4.55
2022-12-04T19:58:40.663Z,3.47
2022-12-04T20:01:10.638Z,4.53
2022-12-04T20:03:37.601Z,3.85
2022-12-04T20:06:19.307Z,4.15
2022-12-04T20:08:46.999Z,3.05
2022-12-04T20:11:17.068Z,3.40
2022-12-04T20:13:46.027Z,3.53
2022-12-04T20:16:14.938Z,2.65
2022-12-04T20:18:42.572Z,2.90
2022-12-04T20:21:11.298Z,3.97
2022-12-04T20:23:46.529Z,1.85
2022-12-04T20:26:15.829Z,2.75
2022-12-04T20:28:43.300Z,3.28
2022-12-04T20:31:25.923Z,3.80
2022-12-04T20:33:55.067Z,3.72
2022-12-04T20:36:25.029Z,3.67
2022-12-04T20:38:55.394Z,3.03
2022-12-04T20:41:22.675Z,2.88
2022-12-04T20:43:49.610Z,3.22
2022-12-04T20:46:17.639Z,2.70
2022-12-04T20:48:49.065Z,3.47
2022-12-04T20:51:24.690Z,2.88
2022-12-04T20:53:52.904Z,3.25
2022-12-04T20:56:21.969Z,3.67
2022-12-04T20:58:49.026Z,2.30
2022-12-04T21:01:17.837Z,1.98
2022-12-04T21:03:46.205Z,2.50
2022-12-04T21:06:15.736Z,2.83
2022-12-04T21:08:56.984Z,3.55
2022-12-04T21:11:26.757Z,2.60
2022-12-04T21:14:24.583Z,2.30
2022-12-04T21:16:52.196Z,2.60
2022-12-04T21:19:21.241Z,2.40
2022-12-04T21:21:48.530Z,2.00
2022-12-04T21:24:17.570Z,3.50
2022-12-04T21:26:44.837Z,3.17
2022-12-04T21:29:11.905Z,2.58
2022-12-04T21:31:39.364Z,2.65
2022-12-04T21:34:08.880Z,3.65
2022-12-04T21:36:35.861Z,3.20
2022-12-04T21:39:02.951Z,2.53
2022-12-04T21:41:48.346Z,2.60
2022-12-04T21:44:17.681Z,3.45
2022-12-04T21:46:45.058Z,3.20
2022-12-04T21:49:13.663Z,3.35
2022-12-04T21:51:58.383Z,2.13
2022-12-04T21:54:27.204Z,2.72
2022-12-04T21:56:54.196Z,2.45
2022-12-04T21:59:21.011Z,2.10
2022-12-04T22:01:47.964Z,2.75
2022-12-04T22:04:14.998Z,2.30
2022-12-04T22:06:42.223Z,1.70
2022-12-04T22:09:10.994Z,2.13
2022-12-04T22:11:41.343Z,2.83
2022-12-04T22:14:09.016Z,2.67
2022-12-04T22:16:41.597Z,2.55
2022-12-04T22:19:10.606Z,2.47
2022-12-04T22:21:38.069Z,3.17
2022-12-04T22:24:05.694Z,2.17
2022-12-04T22:26:33.288Z,2.25
2022-12-04T22:29:00.436Z,3.40
2022-12-04T22:31:28.990Z,3.85
2022-12-04T22:33:58.398Z,4.90
2022-12-04T22:36:28.285Z,5.32
2022-12-04T22:39:11.287Z,5.18
2022-12-04T22:41:38.878Z,6.10
2022-12-04T22:44:06.157Z,7.63
2022-12-04T22:46:33.866Z,6.20
2022-12-04T22:49:01.489Z,6.25
2022-12-04T22:51:28.949Z,3.60
2022-12-04T22:53:58.686Z,6.45
2022-12-04T22:56:30.773Z,5.63
2022-12-04T22:58:58.697Z,5.60
2022-12-04T23:01:29.148Z,4.20
2022-12-04T23:03:56.524Z,3.55
2022-12-04T23:06:26.080Z,3.38
2022-12-04T23:09:04.944Z,3.95
2022-12-04T23:11:32.039Z,4.32
2022-12-04T23:14:01.969Z,3.83
2022-12-04T23:16:30.838Z,5.47
2022-12-04T23:18:58.015Z,5.18
2022-12-04T23:21:25.015Z,4.70
2022-12-04T23:23:53.409Z,3.70
2022-12-04T23:26:23.863Z,3.97
2022-12-04T23:28:50.783Z,3.03
2022-12-04T23:31:18.367Z,3.22
2022-12-04T23:33:45.635Z,3.40
2022-12-04T23:36:13.119Z,3.17
2022-12-04T23:38:42.497Z,2.85
2022-12-04T23:41:14.770Z,3.03
2022-12-04T23:43:42.710Z,2.67
2022-12-04T23:46:11.885Z,2.90
2022-12-04T23:48:43.254Z,2.13
2022-12-04T23:51:11.298Z,2.28
2022-12-04T23:53:38.684Z,2.35
2022-12-04T23:56:14.551Z,2.85
2022-12-04T23:58:42.775Z,2.42
